sensor_id;sensor_type;location;lat;lon;timestamp;pressure;altitude;pressure_sealevel;temperature;humidity
18988;BME280;5494;51.796;10.952;2023-11-22T00:00:38;99822.97;;;1.04;100.00
18988;BME280;5494;51.796;10.952;2023-11-22T00:03:06;99830.69;;;1.06;100.00
18988;BME280;5494;51.796;10.952;2023-11-22T00:05:35;99825.56;;;1.07;100.00
18988;BME280;5494;51.796;10.952;2023-11-22T00:08:04;99825.56;;;1.00;100.00
18988;BME280;5494;51.796;10.952;2023-11-22T00:10:32;99829.00;;;1.09;100.00
18988;BME280;5494;51.796;10.952;2023-11-22T00:13:01;99833.25;;;1.16;100.00
18988;BME280;5494;51.796;10.952;2023-11-22T00:15:30;99837.50;;;1.04;100.00
18988;BME280;5494;51.796;10.952;2023-11-22T00:17:58;99841.78;;;1.14;100.00
18988;BME280;5494;51.796;10.952;2023-11-22T00:20:35;99837.50;;;1.33;100.00
18988;BME280;5494;51.796;10.952;2023-11-22T00:23:04;99846.91;;;1.29;100.00
18988;BME280;5494;51.796;10.952;2023-11-22T00:25:32;99858.88;;;1.29;100.00
18988;BME280;5494;51.796;10.952;2023-11-22T00:28:00;99859.72;;;1.35;100.00
18988;BME280;5494;51.796;10.952;2023-11-22T00:30:30;99853.75;;;1.33;100.00
18988;BME280;5494;51.796;10.952;2023-11-22T00:32:58;99865.69;;;1.28;100.00
18988;BME280;5494;51.796;10.952;2023-11-22T00:35:26;99870.81;;;1.40;100.00
18988;BME280;5494;51.796;10.952;2023-11-22T00:37:54;99875.09;;;1.17;100.00
18988;BME280;5494;51.796;10.952;2023-11-22T00:40:22;99875.91;;;1.10;100.00
18988;BME280;5494;51.796;10.952;2023-11-22T00:42:50;99878.44;;;1.01;100.00
18988;BME280;5494;51.796;10.952;2023-11-22T00:45:18;99888.69;;;0.99;100.00
18988;BME280;5494;51.796;10.952;2023-11-22T00:47:48;99890.38;;;0.93;100.00
18988;BME280;5494;51.796;10.952;2023-11-22T00:50:17;99891.19;;;0.86;100.00
18988;BME280;5494;51.796;10.952;2023-11-22T00:52:47;99893.72;;;0.76;100.00
18988;BME280;5494;51.796;10.952;2023-11-22T00:55:16;99895.47;;;0.81;100.00
18988;BME280;5494;51.796;10.952;2023-11-22T00:57:44;99903.13;;;0.81;100.00
18988;BME280;5494;51.796;10.952;2023-11-22T01:00:12;99907.34;;;0.69;100.00
18988;BME280;5494;51.796;10.952;2023-11-22T01:02:42;99915.00;;;0.65;100.00
18988;BME280;5494;51.796;10.952;2023-11-22T01:05:11;99920.97;;;0.61;100.00
18988;BME280;5494;51.796;10.952;2023-11-22T01:07:42;99920.97;;;0.65;100.00
18988;BME280;5494;51.796;10.952;2023-11-22T01:10:10;99923.53;;;0.61;100.00
18988;BME280;5494;51.796;10.952;2023-11-22T01:12:39;99930.28;;;0.51;100.00
18988;BME280;5494;51.796;10.952;2023-11-22T01:15:09;99928.59;;;0.52;100.00
18988;BME280;5494;51.796;10.952;2023-11-22T01:17:37;99925.09;;;0.33;100.00
18988;BME280;5494;51.796;10.952;2023-11-22T01:20:07;99912.25;;;0.28;100.00
18988;BME280;5494;51.796;10.952;2023-11-22T01:22:39;99917.34;;;0.22;100.00
18988;BME280;5494;51.796;10.952;2023-11-22T01:25:08;99912.19;;;0.12;100.00
18988;BME280;5494;51.796;10.952;2023-11-22T01:27:36;99913.97;;;0.26;100.00
18988;BME280;5494;51.796;10.952;2023-11-22T01:30:06;99918.22;;;0.29;100.00
18988;BME280;5494;51.796;10.952;2023-11-22T01:32:35;99920.75;;;0.20;100.00
18988;BME280;5494;51.796;10.952;2023-11-22T01:35:04;99924.09;;;0.07;100.00
18988;BME280;5494;51.796;10.952;2023-11-22T01:37:33;99924.09;;;0.10;100.00
18988;BME280;5494;51.796;10.952;2023-11-22T01:40:02;99921.50;;;0.04;100.00
18988;BME280;5494;51.796;10.952;2023-11-22T01:42:31;99919.66;;;-0.13;100.00
18988;BME280;5494;51.796;10.952;2023-11-22T01:45:00;99918.03;;;-0.08;100.00
18988;BME280;5494;51.796;10.952;2023-11-22T01:47:28;99931.53;;;-0.24;100.00
18988;BME280;5494;51.796;10.952;2023-11-22T01:49:57;99920.50;;;-0.17;100.00
18988;BME280;5494;51.796;10.952;2023-11-22T01:52:26;99911.91;;;-0.25;100.00
18988;BME280;5494;51.796;10.952;2023-11-22T01:54:55;99922.00;;;-0.40;100.00
18988;BME280;5494;51.796;10.952;2023-11-22T01:57:26;99933.88;;;-0.47;100.00
18988;BME280;5494;51.796;10.952;2023-11-22T01:59:54;99936.59;;;-0.28;100.00
18988;BME280;5494;51.796;10.952;2023-11-22T02:02:23;99933.09;;;-0.40;100.00
18988;BME280;5494;51.796;10.952;2023-11-22T02:04:51;99937.22;;;-0.54;100.00
18988;BME280;5494;51.796;10.952;2023-11-22T02:07:20;99946.56;;;-0.57;100.00
18988;BME280;5494;51.796;10.952;2023-11-22T02:09:48;99951.72;;;-0.51;100.00
18988;BME280;5494;51.796;10.952;2023-11-22T02:12:19;99950.81;;;-0.56;100.00
18988;BME280;5494;51.796;10.952;2023-11-22T02:14:50;99951.66;;;-0.54;100.00
18988;BME280;5494;51.796;10.952;2023-11-22T02:17:18;99957.59;;;-0.58;100.00
18988;BME280;5494;51.796;10.952;2023-11-22T02:19:46;99952.34;;;-0.73;100.00
18988;BME280;5494;51.796;10.952;2023-11-22T02:22:15;99962.59;;;-0.70;100.00
18988;BME280;5494;51.796;10.952;2023-11-22T02:24:45;99963.53;;;-0.62;100.00
18988;BME280;5494;51.796;10.952;2023-11-22T02:27:13;99976.28;;;-0.62;100.00
18988;BME280;5494;51.796;10.952;2023-11-22T02:29:41;99983.06;;;-0.64;100.00
18988;BME280;5494;51.796;10.952;2023-11-22T02:32:10;99997.47;;;-0.68;100.00
18988;BME280;5494;51.796;10.952;2023-11-22T02:34:38;99981.25;;;-0.74;100.00
18988;BME280;5494;51.796;10.952;2023-11-22T02:37:06;99974.53;;;-0.66;100.00
18988;BME280;5494;51.796;10.952;2023-11-22T02:39:47;99968.50;;;-0.73;100.00
18988;BME280;5494;51.796;10.952;2023-11-22T02:42:20;99969.41;;;-0.68;100.00
18988;BME280;5494;51.796;10.952;2023-11-22T02:44:48;99966.09;;;-0.59;100.00
18988;BME280;5494;51.796;10.952;2023-11-22T02:47:16;99955.91;;;-0.55;100.00
18988;BME280;5494;51.796;10.952;2023-11-22T02:49:44;99962.03;;;-0.39;100.00
18988;BME280;5494;51.796;10.952;2023-11-22T02:52:12;99967.31;;;-0.21;100.00
18988;BME280;5494;51.796;10.952;2023-11-22T02:54:43;99955.56;;;0.04;100.00
18988;BME280;5494;51.796;10.952;2023-11-22T02:57:12;99951.38;;;0.12;100.00
18988;BME280;5494;51.796;10.952;2023-11-22T02:59:41;99945.34;;;0.03;100.00
18988;BME280;5494;51.796;10.952;2023-11-22T03:02:09;99953.03;;;0.07;100.00
18988;BME280;5494;51.796;10.952;2023-11-22T03:04:38;99957.38;;;0.17;100.00
18988;BME280;5494;51.796;10.952;2023-11-22T03:07:06;99973.63;;;0.30;100.00
18988;BME280;5494;51.796;10.952;2023-11-22T03:09:34;99988.13;;;0.31;100.00
18988;BME280;5494;51.796;10.952;2023-11-22T03:12:04;99984.75;;;0.32;100.00
18988;BME280;5494;51.796;10.952;2023-11-22T03:14:35;99987.22;;;0.23;100.00
18988;BME280;5494;51.796;10.952;2023-11-22T03:17:04;99984.56;;;0.08;100.00
18988;BME280;5494;51.796;10.952;2023-11-22T03:19:32;99986.22;;;-0.01;100.00
18988;BME280;5494;51.796;10.952;2023-11-22T03:22:00;99995.66;;;0.07;100.00
18988;BME280;5494;51.796;10.952;2023-11-22T03:24:30;99993.84;;;-0.04;100.00
18988;BME280;5494;51.796;10.952;2023-11-22T03:26:59;100004.81;;;-0.17;100.00
18988;BME280;5494;51.796;10.952;2023-11-22T03:29:27;100006.53;;;-0.16;100.00
18988;BME280;5494;51.796;10.952;2023-11-22T03:31:57;100011.69;;;-0.10;100.00
18988;BME280;5494;51.796;10.952;2023-11-22T03:34:26;100007.47;;;-0.05;100.00
18988;BME280;5494;51.796;10.952;2023-11-22T03:36:54;100000.56;;;-0.15;100.00
18988;BME280;5494;51.796;10.952;2023-11-22T03:39:22;100009.09;;;-0.13;100.00
18988;BME280;5494;51.796;10.952;2023-11-22T03:41:50;100010.88;;;-0.07;100.00
18988;BME280;5494;51.796;10.952;2023-11-22T03:44:18;100013.31;;;-0.21;100.00
18988;BME280;5494;51.796;10.952;2023-11-22T03:46:46;100016.78;;;-0.10;100.00
18988;BME280;5494;51.796;10.952;2023-11-22T03:49:16;100010.00;;;-0.08;100.00
18988;BME280;5494;51.796;10.952;2023-11-22T03:51:44;100020.91;;;-0.25;100.00
18988;BME280;5494;51.796;10.952;2023-11-22T03:54:13;100018.22;;;-0.39;100.00
18988;BME280;5494;51.796;10.952;2023-11-22T03:56:41;100019.00;;;-0.46;100.00
18988;BME280;5494;51.796;10.952;2023-11-22T03:59:09;100025.06;;;-0.33;100.00
18988;BME280;5494;51.796;10.952;2023-11-22T04:01:37;100025.78;;;-0.47;100.00
18988;BME280;5494;51.796;10.952;2023-11-22T04:04:05;100023.94;;;-0.60;100.00
18988;BME280;5494;51.796;10.952;2023-11-22T04:06:37;100026.41;;;-0.69;100.00
18988;BME280;5494;51.796;10.952;2023-11-22T04:09:08;100031.31;;;-0.86;100.00
18988;BME280;5494;51.796;10.952;2023-11-22T04:11:39;100041.47;;;-0.92;100.00
18988;BME280;5494;51.796;10.952;2023-11-22T04:14:07;100039.69;;;-0.96;100.00
18988;BME280;5494;51.796;10.952;2023-11-22T04:16:36;100048.16;;;-1.00;100.00
18988;BME280;5494;51.796;10.952;2023-11-22T04:19:04;100051.47;;;-1.07;100.00
18988;BME280;5494;51.796;10.952;2023-11-22T04:21:33;100066.78;;;-1.07;100.00
18988;BME280;5494;51.796;10.952;2023-11-22T04:24:03;100062.56;;;-1.05;100.00
18988;BME280;5494;51.796;10.952;2023-11-22T04:26:31;100066.78;;;-1.07;100.00
18988;BME280;5494;51.796;10.952;2023-11-22T04:28:59;100066.03;;;-0.97;100.00
18988;BME280;5494;51.796;10.952;2023-11-22T04:31:27;100068.72;;;-0.88;100.00
18988;BME280;5494;51.796;10.952;2023-11-22T04:33:55;100065.41;;;-0.81;100.00
18988;BME280;5494;51.796;10.952;2023-11-22T04:36:24;100075.75;;;-0.68;100.00
18988;BME280;5494;51.796;10.952;2023-11-22T04:38:53;100089.38;;;-0.69;100.00
18988;BME280;5494;51.796;10.952;2023-11-22T04:41:22;100096.97;;;-0.74;100.00
18988;BME280;5494;51.796;10.952;2023-11-22T04:43:53;100099.63;;;-0.65;100.00
18988;BME280;5494;51.796;10.952;2023-11-22T04:46:21;100098.91;;;-0.55;100.00
18988;BME280;5494;51.796;10.952;2023-11-22T04:48:51;100098.22;;;-0.42;100.00
18988;BME280;5494;51.796;10.952;2023-11-22T04:51:19;100102.53;;;-0.36;100.00
18988;BME280;5494;51.796;10.952;2023-11-22T04:53:47;100116.88;;;-0.49;100.00
18988;BME280;5494;51.796;10.952;2023-11-22T04:56:15;100122.91;;;-0.41;100.00
18988;BME280;5494;51.796;10.952;2023-11-22T04:58:45;100125.53;;;-0.33;100.00
18988;BME280;5494;51.796;10.952;2023-11-22T05:01:13;100133.13;;;-0.41;100.00
18988;BME280;5494;51.796;10.952;2023-11-22T05:03:44;100142.41;;;-0.47;100.00
18988;BME280;5494;51.796;10.952;2023-11-22T05:06:12;100149.09;;;-0.55;100.00
18988;BME280;5494;51.796;10.952;2023-11-22T05:08:40;100149.19;;;-0.48;100.00
18988;BME280;5494;51.796;10.952;2023-11-22T05:11:08;100160.94;;;-0.63;100.00
18988;BME280;5494;51.796;10.952;2023-11-22T05:13:37;100166.03;;;-0.63;100.00
18988;BME280;5494;51.796;10.952;2023-11-22T05:16:08;100172.69;;;-0.73;100.00
18988;BME280;5494;51.796;10.952;2023-11-22T05:18:36;100166.78;;;-0.70;100.00
18988;BME280;5494;51.796;10.952;2023-11-22T05:21:04;100164.09;;;-0.80;100.00
18988;BME280;5494;51.796;10.952;2023-11-22T05:23:33;100159.88;;;-0.76;100.00
18988;BME280;5494;51.796;10.952;2023-11-22T05:26:01;100164.13;;;-0.78;100.00
18988;BME280;5494;51.796;10.952;2023-11-22T05:28:31;100162.47;;;-0.74;100.00
18988;BME280;5494;51.796;10.952;2023-11-22T05:31:01;100151.38;;;-0.78;100.00
18988;BME280;5494;51.796;10.952;2023-11-22T05:33:31;100151.09;;;-0.96;100.00
18988;BME280;5494;51.796;10.952;2023-11-22T05:35:59;100157.81;;;-1.03;100.00
18988;BME280;5494;51.796;10.952;2023-11-22T05:38:27;100156.16;;;-1.01;100.00
18988;BME280;5494;51.796;10.952;2023-11-22T05:40:55;100160.28;;;-1.09;100.00
18988;BME280;5494;51.796;10.952;2023-11-22T05:43:24;100157.69;;;-1.12;100.00
18988;BME280;5494;51.796;10.952;2023-11-22T05:45:54;100156.84;;;-1.11;100.00
18988;BME280;5494;51.796;10.952;2023-11-22T05:48:22;100158.56;;;-1.08;100.00
18988;BME280;5494;51.796;10.952;2023-11-22T05:50:52;100152.63;;;-1.09;100.00
18988;BME280;5494;51.796;10.952;2023-11-22T05:53:20;100156.75;;;-1.18;100.00
18988;BME280;5494;51.796;10.952;2023-11-22T05:55:48;100152.44;;;-1.21;100.00
18988;BME280;5494;51.796;10.952;2023-11-22T05:58:17;100161.75;;;-1.25;100.00
18988;BME280;5494;51.796;10.952;2023-11-22T06:00:46;100153.31;;;-1.17;100.00
18988;BME280;5494;51.796;10.952;2023-11-22T06:03:14;100163.53;;;-1.19;100.00
18988;BME280;5494;51.796;10.952;2023-11-22T06:05:42;100163.63;;;-1.13;100.00
18988;BME280;5494;51.796;10.952;2023-11-22T06:08:12;100162.75;;;-1.13;100.00
18988;BME280;5494;51.796;10.952;2023-11-22T06:10:40;100162.69;;;-1.16;100.00
18988;BME280;5494;51.796;10.952;2023-11-22T06:13:09;100172.06;;;-1.15;100.00
18988;BME280;5494;51.796;10.952;2023-11-22T06:15:39;100172.97;;;-1.13;100.00
18988;BME280;5494;51.796;10.952;2023-11-22T06:18:07;100178.06;;;-1.13;100.00
18988;BME280;5494;51.796;10.952;2023-11-22T06:20:35;100170.44;;;-1.12;100.00
18988;BME280;5494;51.796;10.952;2023-11-22T06:23:03;100169.53;;;-1.15;100.00
18988;BME280;5494;51.796;10.952;2023-11-22T06:25:33;100173.75;;;-1.16;100.00
18988;BME280;5494;51.796;10.952;2023-11-22T06:28:03;100172.22;;;-1.06;100.00
18988;BME280;5494;51.796;10.952;2023-11-22T06:30:31;100177.25;;;-1.11;100.00
18988;BME280;5494;51.796;10.952;2023-11-22T06:33:00;100177.19;;;-1.15;100.00
18988;BME280;5494;51.796;10.952;2023-11-22T06:35:28;100185.66;;;-1.18;100.00
18988;BME280;5494;51.796;10.952;2023-11-22T06:37:56;100195.94;;;-1.12;100.00
18988;BME280;5494;51.796;10.952;2023-11-22T06:40:24;100208.75;;;-1.09;100.00
18988;BME280;5494;51.796;10.952;2023-11-22T06:42:54;100208.97;;;-0.94;100.00
18988;BME280;5494;51.796;10.952;2023-11-22T06:45:22;100226.81;;;-0.95;100.00
18988;BME280;5494;51.796;10.952;2023-11-22T06:47:50;100242.09;;;-0.98;100.00
18988;BME280;5494;51.796;10.952;2023-11-22T06:50:19;100235.38;;;-0.92;100.00
18988;BME280;5494;51.796;10.952;2023-11-22T06:52:48;100249.81;;;-0.94;100.00
18988;BME280;5494;51.796;10.952;2023-11-22T06:55:19;100253.22;;;-0.93;100.00
18988;BME280;5494;51.796;10.952;2023-11-22T06:57:48;100263.56;;;-0.86;100.00
18988;BME280;5494;51.796;10.952;2023-11-22T07:00:19;100262.00;;;-0.74;100.00
18988;BME280;5494;51.796;10.952;2023-11-22T07:02:47;100259.38;;;-0.81;100.00
18988;BME280;5494;51.796;10.952;2023-11-22T07:05:16;100259.56;;;-0.70;100.00
18988;BME280;5494;51.796;10.952;2023-11-22T07:07:44;100259.44;;;-0.76;100.00
18988;BME280;5494;51.796;10.952;2023-11-22T07:10:13;100260.41;;;-0.69;100.00
18988;BME280;5494;51.796;10.952;2023-11-22T07:12:42;100267.97;;;-0.74;100.00
18988;BME280;5494;51.796;10.952;2023-11-22T07:15:10;100268.09;;;-0.66;100.00
18988;BME280;5494;51.796;10.952;2023-11-22T07:17:39;100267.34;;;-0.59;100.00
18988;BME280;5494;51.796;10.952;2023-11-22T07:20:09;100269.09;;;-0.55;100.00
18988;BME280;5494;51.796;10.952;2023-11-22T07:22:43;100269.22;;;-0.48;100.00
18988;BME280;5494;51.796;10.952;2023-11-22T07:25:12;100249.56;;;-0.53;100.00
18988;BME280;5494;51.796;10.952;2023-11-22T07:27:45;100249.47;;;-0.59;100.00
18988;BME280;5494;51.796;10.952;2023-11-22T07:30:14;100243.38;;;-0.69;100.00
18988;BME280;5494;51.796;10.952;2023-11-22T07:32:44;100247.44;;;-0.82;100.00
18988;BME280;5494;51.796;10.952;2023-11-22T07:35:12;100248.44;;;-0.72;100.00
18988;BME280;5494;51.796;10.952;2023-11-22T07:37:42;100255.50;;;-0.54;100.00
18988;BME280;5494;51.796;10.952;2023-11-22T07:40:11;100241.88;;;-0.56;100.00
18988;BME280;5494;51.796;10.952;2023-11-22T07:42:41;100247.69;;;-0.66;100.00
18988;BME280;5494;51.796;10.952;2023-11-22T07:45:11;100232.44;;;-0.60;100.00
18988;BME280;5494;51.796;10.952;2023-11-22T07:47:41;100233.44;;;-0.51;100.00
18988;BME280;5494;51.796;10.952;2023-11-22T07:50:12;100231.03;;;-0.42;100.00
18988;BME280;5494;51.796;10.952;2023-11-22T07:52:40;100221.47;;;-0.53;100.00
18988;BME280;5494;51.796;10.952;2023-11-22T07:55:09;100220.47;;;-0.64;100.00
18988;BME280;5494;51.796;10.952;2023-11-22T07:57:37;100231.44;;;-0.71;100.00
18988;BME280;5494;51.796;10.952;2023-11-22T08:00:07;100239.19;;;-0.65;100.00
18988;BME280;5494;51.796;10.952;2023-11-22T08:02:38;100241.53;;;-0.79;100.00
18988;BME280;5494;51.796;10.952;2023-11-22T08:05:07;100230.56;;;-0.73;100.00
18988;BME280;5494;51.796;10.952;2023-11-22T08:07:38;100234.06;;;-0.65;100.00
18988;BME280;5494;51.796;10.952;2023-11-22T08:10:09;100226.91;;;-0.30;100.00
18988;BME280;5494;51.796;10.952;2023-11-22T08:12:46;100216.63;;;-0.33;100.00
18988;BME280;5494;51.796;10.952;2023-11-22T08:15:17;100218.25;;;-0.40;100.00
18988;BME280;5494;51.796;10.952;2023-11-22T08:17:47;100212.00;;;-0.63;100.00
18988;BME280;5494;51.796;10.952;2023-11-22T08:20:16;100207.00;;;-0.54;100.00
18988;BME280;5494;51.796;10.952;2023-11-22T08:22:47;100218.03;;;-0.55;100.00
18988;BME280;5494;51.796;10.952;2023-11-22T08:25:17;100223.25;;;-0.49;100.00
18988;BME280;5494;51.796;10.952;2023-11-22T08:27:45;100220.53;;;-0.60;100.00
18988;BME280;5494;51.796;10.952;2023-11-22T08:30:14;100228.97;;;-0.65;100.00
18988;BME280;5494;51.796;10.952;2023-11-22T08:32:44;100234.16;;;-0.59;100.00
18988;BME280;5494;51.796;10.952;2023-11-22T08:35:17;100234.91;;;-0.66;100.00
18988;BME280;5494;51.796;10.952;2023-11-22T08:37:48;100220.03;;;-0.36;100.00
18988;BME280;5494;51.796;10.952;2023-11-22T08:40:18;100230.63;;;-0.04;100.00
18988;BME280;5494;51.796;10.952;2023-11-22T08:42:47;100219.28;;;-0.26;100.00
18988;BME280;5494;51.796;10.952;2023-11-22T08:45:16;100237.81;;;-0.42;100.00
18988;BME280;5494;51.796;10.952;2023-11-22T08:47:44;100253.63;;;-0.67;100.00
18988;BME280;5494;51.796;10.952;2023-11-22T08:50:13;100242.94;;;-0.42;100.00
18988;BME280;5494;51.796;10.952;2023-11-22T08:52:42;100244.03;;;-0.23;100.00
18988;BME280;5494;51.796;10.952;2023-11-22T08:55:13;100254.44;;;-0.07;100.00
18988;BME280;5494;51.796;10.952;2023-11-22T08:57:42;100265.69;;;0.08;100.00
18988;BME280;5494;51.796;10.952;2023-11-22T09:00:11;100268.56;;;0.32;100.00
18988;BME280;5494;51.796;10.952;2023-11-22T09:02:41;100276.19;;;0.29;100.00
18988;BME280;5494;51.796;10.952;2023-11-22T09:05:09;100278.25;;;0.60;100.00
18988;BME280;5494;51.796;10.952;2023-11-22T09:07:43;100274.06;;;0.68;100.00
18988;BME280;5494;51.796;10.952;2023-11-22T09:10:13;100278.41;;;0.75;100.00
18988;BME280;5494;51.796;10.952;2023-11-22T09:12:42;100272.38;;;0.72;100.00
18988;BME280;5494;51.796;10.952;2023-11-22T09:15:12;100262.19;;;0.78;100.00
18988;BME280;5494;51.796;10.952;2023-11-22T09:17:44;100260.47;;;0.74;100.00
18988;BME280;5494;51.796;10.952;2023-11-22T09:20:14;100262.84;;;0.57;100.00
18988;BME280;5494;51.796;10.952;2023-11-22T09:22:44;100271.16;;;0.38;100.00
18988;BME280;5494;51.796;10.952;2023-11-22T09:25:19;100271.59;;;0.02;100.00
18988;BME280;5494;51.796;10.952;2023-11-22T09:27:51;100270.75;;;0.00;100.00
18988;BME280;5494;51.796;10.952;2023-11-22T09:30:24;100272.66;;;0.21;100.00
18988;BME280;5494;51.796;10.952;2023-11-22T09:33:05;100271.25;;;0.44;100.00
18988;BME280;5494;51.796;10.952;2023-11-22T09:35:35;100268.03;;;0.63;100.00
18988;BME280;5494;51.796;10.952;2023-11-22T09:38:05;100264.81;;;0.83;100.00
18988;BME280;5494;51.796;10.952;2023-11-22T09:40:41;100261.69;;;1.15;100.00
18988;BME280;5494;51.796;10.952;2023-11-22T09:43:10;100263.28;;;1.03;100.00
18988;BME280;5494;51.796;10.952;2023-11-22T09:45:38;100267.41;;;0.90;100.00
18988;BME280;5494;51.796;10.952;2023-11-22T09:48:15;100270.63;;;0.69;100.00
18988;BME280;5494;51.796;10.952;2023-11-22T09:50:54;100276.00;;;0.94;100.00
18988;BME280;5494;51.796;10.952;2023-11-22T09:53:32;100281.75;;;0.71;100.00
18988;BME280;5494;51.796;10.952;2023-11-22T09:56:03;100282.56;;;0.66;100.00
18988;BME280;5494;51.796;10.952;2023-11-22T09:58:35;100281.06;;;0.88;100.00
18988;BME280;5494;51.796;10.952;2023-11-22T10:01:03;100271.88;;;1.11;100.00
18988;BME280;5494;51.796;10.952;2023-11-22T10:03:32;100269.44;;;1.26;100.00
18988;BME280;5494;51.796;10.952;2023-11-22T10:06:00;100260.09;;;1.34;100.00
18988;BME280;5494;51.796;10.952;2023-11-22T10:08:31;100261.94;;;1.53;100.00
18988;BME280;5494;51.796;10.952;2023-11-22T10:11:01;100255.19;;;1.69;100.00
18988;BME280;5494;51.796;10.952;2023-11-22T10:13:31;100248.59;;;2.18;100.00
18988;BME280;5494;51.796;10.952;2023-11-22T10:16:10;100247.88;;;2.69;100.00
18988;BME280;5494;51.796;10.952;2023-11-22T10:18:41;100247.03;;;3.17;95.29
18988;BME280;5494;51.796;10.952;2023-11-22T10:21:22;100247.81;;;3.71;89.48
18988;BME280;5494;51.796;10.952;2023-11-22T10:23:53;100244.34;;;3.84;83.09
18988;BME280;5494;51.796;10.952;2023-11-22T10:26:25;100256.44;;;3.44;80.16
18988;BME280;5494;51.796;10.952;2023-11-22T10:28:56;100261.56;;;2.93;83.25
18988;BME280;5494;51.796;10.952;2023-11-22T10:31:25;100254.72;;;2.98;84.54
18988;BME280;5494;51.796;10.952;2023-11-22T10:33:55;100257.28;;;2.84;87.27
18988;BME280;5494;51.796;10.952;2023-11-22T10:36:24;100264.16;;;3.15;84.56
18988;BME280;5494;51.796;10.952;2023-11-22T10:38:54;100270.16;;;3.37;80.70
18988;BME280;5494;51.796;10.952;2023-11-22T10:41:23;100279.56;;;3.09;82.47
18988;BME280;5494;51.796;10.952;2023-11-22T10:43:52;100278.72;;;3.44;83.26
18988;BME280;5494;51.796;10.952;2023-11-22T10:46:28;100272.66;;;3.68;82.18
18988;BME280;5494;51.796;10.952;2023-11-22T10:48:58;100279.53;;;2.85;83.38
18988;BME280;5494;51.796;10.952;2023-11-22T10:51:32;100291.50;;;2.62;90.33
18988;BME280;5494;51.796;10.952;2023-11-22T10:54:01;100292.19;;;2.18;92.51
18988;BME280;5494;51.796;10.952;2023-11-22T10:56:39;100292.00;;;1.80;94.54
18988;BME280;5494;51.796;10.952;2023-11-22T10:59:13;100296.06;;;1.49;96.79
18988;BME280;5494;51.796;10.952;2023-11-22T11:01:46;100302.81;;;1.35;99.97
18988;BME280;5494;51.796;10.952;2023-11-22T11:04:24;100306.75;;;0.98;100.00
18988;BME280;5494;51.796;10.952;2023-11-22T11:06:55;100299.88;;;0.93;100.00
18988;BME280;5494;51.796;10.952;2023-11-22T11:09:24;100281.00;;;0.80;100.00
18988;BME280;5494;51.796;10.952;2023-11-22T11:12:01;100284.41;;;0.84;100.00
18988;BME280;5494;51.796;10.952;2023-11-22T11:14:35;100293.09;;;0.96;100.00
18988;BME280;5494;51.796;10.952;2023-11-22T11:17:05;100284.59;;;1.02;100.00
18988;BME280;5494;51.796;10.952;2023-11-22T11:19:33;100289.72;;;1.02;100.00
18988;BME280;5494;51.796;10.952;2023-11-22T11:22:03;100283.88;;;1.16;100.00
18988;BME280;5494;51.796;10.952;2023-11-22T11:24:39;100257.75;;;1.68;100.00
18988;BME280;5494;51.796;10.952;2023-11-22T11:27:10;100256.22;;;1.98;97.14
18988;BME280;5494;51.796;10.952;2023-11-22T11:29:39;100276.56;;;1.70;96.55
18988;BME280;5494;51.796;10.952;2023-11-22T11:32:11;100274.97;;;1.91;96.71
18988;BME280;5494;51.796;10.952;2023-11-22T11:34:48;100262.91;;;1.74;95.84
18988;BME280;5494;51.796;10.952;2023-11-22T11:37:19;100259.56;;;1.85;97.02
18988;BME280;5494;51.796;10.952;2023-11-22T11:39:46;100267.34;;;2.08;95.16
18988;BME280;5494;51.796;10.952;2023-11-22T11:42:16;100252.75;;;1.89;95.11
18988;BME280;5494;51.796;10.952;2023-11-22T11:45:03;100235.75;;;2.11;95.99
18988;BME280;5494;51.796;10.952;2023-11-22T11:47:33;100222.88;;;1.97;94.10
18988;BME280;5494;51.796;10.952;2023-11-22T11:50:02;100222.84;;;1.91;94.27
18988;BME280;5494;51.796;10.952;2023-11-22T11:52:31;100220.97;;;1.56;94.86
18988;BME280;5494;51.796;10.952;2023-11-22T11:54:59;100228.56;;;1.38;96.70
18988;BME280;5494;51.796;10.952;2023-11-22T11:57:32;100232.66;;;1.18;97.22
18988;BME280;5494;51.796;10.952;2023-11-22T12:00:00;100218.31;;;1.38;98.45
18988;BME280;5494;51.796;10.952;2023-11-22T12:02:37;100200.44;;;1.50;96.27
18988;BME280;5494;51.796;10.952;2023-11-22T12:05:06;100212.28;;;1.33;98.40
18988;BME280;5494;51.796;10.952;2023-11-22T12:07:36;100197.63;;;1.09;98.78
18988;BME280;5494;51.796;10.952;2023-11-22T12:10:05;100196.81;;;1.18;100.00
18988;BME280;5494;51.796;10.952;2023-11-22T12:12:36;100200.28;;;1.26;100.00
18988;BME280;5494;51.796;10.952;2023-11-22T12:15:05;100186.75;;;1.48;100.00
18988;BME280;5494;51.796;10.952;2023-11-22T12:17:34;100177.25;;;1.23;100.00
18988;BME280;5494;51.796;10.952;2023-11-22T12:20:11;100188.28;;;1.16;100.00
18988;BME280;5494;51.796;10.952;2023-11-22T12:22:42;100174.63;;;1.17;100.00
18988;BME280;5494;51.796;10.952;2023-11-22T12:25:10;100163.53;;;1.15;100.00
18988;BME280;5494;51.796;10.952;2023-11-22T12:27:41;100154.03;;;0.99;100.00
18988;BME280;5494;51.796;10.952;2023-11-22T12:30:27;100125.91;;;1.02;100.00
18988;BME280;5494;51.796;10.952;2023-11-22T12:32:56;100127.63;;;1.03;100.00
18988;BME280;5494;51.796;10.952;2023-11-22T12:35:24;100116.69;;;1.34;100.00
18988;BME280;5494;51.796;10.952;2023-11-22T12:37:53;100115.72;;;1.18;100.00
18988;BME280;5494;51.796;10.952;2023-11-22T12:40:22;100102.09;;;1.19;100.00
18988;BME280;5494;51.796;10.952;2023-11-22T12:42:52;100108.00;;;1.08;100.00
18988;BME280;5494;51.796;10.952;2023-11-22T12:45:22;100101.94;;;0.92;100.00
18988;BME280;5494;51.796;10.952;2023-11-22T12:47:51;100101.25;;;1.25;100.00
18988;BME280;5494;51.796;10.952;2023-11-22T12:50:30;100113.34;;;1.49;100.00
18988;BME280;5494;51.796;10.952;2023-11-22T12:53:00;100125.28;;;1.48;100.00
18988;BME280;5494;51.796;10.952;2023-11-22T12:55:35;100128.53;;;1.18;100.00
18988;BME280;5494;51.796;10.952;2023-11-22T12:58:05;100131.94;;;1.10;100.00
18988;BME280;5494;51.796;10.952;2023-11-22T13:00:34;100120.75;;;0.99;100.00